Time;durP1;ratioP1;P1;durP2;ratioP2;P2;SDS_P1;SDS_P2;PMS_P1;PMS_P2;Temp;Humidity;BMP_temperature;BMP_pressure;BME280_temperature;BME280_humidity;BME280_pressure;Samples;Min_cycle;Max_cycle;Signal;HPM_P1;HPM_P2
2022/06/26 06:23:36;;;;;;;5.85;1.80;;;;;;;16.76;78.89;101524.34;5072454;27;116700;-35
2022/06/26 06:26:02;;;;;;;3.63;1.90;;;;;;;16.71;79.43;101518.34;5079240;27;96806;-35
2022/06/26 06:28:27;;;;;;;6.15;1.75;;;;;;;16.72;78.47;101537.34;5078471;27;97340;-35
2022/06/26 06:30:52;;;;;;;5.90;1.80;;;;;;;16.67;77.97;101541.44;5078895;27;97849;-35
2022/06/26 06:33:18;;;;;;;2.17;1.30;;;;;;;16.62;78.59;101539.06;5078910;27;96805;-36
2022/06/26 06:35:43;;;;;;;2.72;1.58;;;;;;;16.70;78.33;101565.81;5079264;27;96744;-36
2022/06/26 06:38:09;;;;;;;4.53;1.70;;;;;;;16.71;78.23;101575.78;5078896;27;97850;-36
2022/06/26 06:40:35;;;;;;;5.40;1.83;;;;;;;16.77;78.17;101591.72;5076976;27;100518;-35
2022/06/26 06:43:00;;;;;;;7.90;1.70;;;;;;;16.88;78.26;101585.50;5078689;27;96559;-35
2022/06/26 06:45:31;;;;;;;2.65;1.42;;;;;;;16.96;76.99;101574.81;5079568;27;96923;-35
2022/06/26 06:47:57;;;;;;;2.35;1.38;;;;;;;17.08;76.74;101575.72;5078460;27;97862;-36
2022/06/26 06:50:22;;;;;;;3.60;1.38;;;;;;;17.11;76.30;101589.16;5078606;27;97871;-35
2022/06/26 06:52:47;;;;;;;3.90;1.48;;;;;;;17.20;76.35;101593.94;5078136;27;96509;-35
2022/06/26 06:55:13;;;;;;;4.07;1.48;;;;;;;17.16;76.24;101578.72;5078400;27;96841;-36
2022/06/26 06:57:38;;;;;;;2.72;1.40;;;;;;;17.15;76.23;101587.94;5078422;27;97915;-35
2022/06/26 07:00:05;;;;;;;3.00;1.58;;;;;;;17.17;76.25;101595.06;5078409;27;96528;-35
2022/06/26 07:02:31;;;;;;;2.00;1.30;;;;;;;17.15;75.68;101605.25;5077124;27;96621;-35
2022/06/26 07:04:56;;;;;;;2.97;1.40;;;;;;;17.18;76.19;101599.56;5078623;27;96723;-35
2022/06/26 07:07:22;;;;;;;6.00;1.27;;;;;;;17.12;76.08;101588.19;5078292;27;97420;-36
2022/06/26 07:09:47;;;;;;;3.38;1.58;;;;;;;17.31;75.72;101599.47;5078496;27;103230;-35
2022/06/26 07:12:15;;;;;;;6.82;1.65;;;;;;;17.39;75.68;101590.63;5078560;27;96639;-35
2022/06/26 07:14:40;;;;;;;4.18;1.30;;;;;;;17.50;74.84;101600.75;5078506;27;96856;-36
2022/06/26 07:17:06;;;;;;;2.53;1.25;;;;;;;17.56;74.54;101608.47;5077533;27;100088;-35
2022/06/26 07:19:31;;;;;;;2.92;1.67;;;;;;;17.43;75.05;101602.25;5078069;27;97782;-35
2022/06/26 07:21:56;;;;;;;2.42;1.48;;;;;;;17.55;75.58;101604.00;5078486;27;96575;-36
2022/06/26 07:24:22;;;;;;;2.95;1.35;;;;;;;17.64;74.83;101597.81;5078072;27;96816;-36
2022/06/26 07:26:47;;;;;;;3.13;1.23;;;;;;;17.71;74.14;101593.59;5077932;27;97336;-35
2022/06/26 07:29:12;;;;;;;2.28;1.13;;;;;;;18.03;74.15;101603.84;5078006;27;97261;-35
2022/06/26 07:31:38;;;;;;;2.15;1.13;;;;;;;18.21;73.10;101596.88;5078392;27;96695;-36
2022/06/26 07:34:16;;;;;;;1.98;1.05;;;;;;;18.30;73.08;101599.84;5077975;27;96762;-36
2022/06/26 07:36:47;;;;;;;5.18;1.38;;;;;;;18.26;72.54;101615.69;5077602;27;99323;-35
2022/06/26 07:39:14;;;;;;;1.35;0.95;;;;;;;18.12;72.25;101616.81;5076198;27;100986;-35
2022/06/26 07:41:41;;;;;;;0.93;0.70;;;;;;;18.15;71.89;101622.03;5076171;27;96448;-35
2022/06/26 07:44:07;;;;;;;1.50;0.80;;;;;;;18.37;72.42;101628.50;5059550;27;96916;-36
2022/06/26 07:46:34;;;;;;;3.25;0.88;;;;;;;18.62;71.92;101617.25;5077215;27;99397;-36
2022/06/26 07:49:00;;;;;;;3.70;1.20;;;;;;;18.78;71.23;101608.66;5076064;27;101056;-36
2022/06/26 07:51:25;;;;;;;2.20;1.08;;;;;;;18.81;70.50;101607.53;5076176;27;96759;-35
2022/06/26 07:53:51;;;;;;;2.10;0.98;;;;;;;18.93;70.11;101614.72;5077935;27;96858;-36
2022/06/26 07:56:16;;;;;;;1.30;0.88;;;;;;;19.00;68.79;101609.56;5077568;27;97924;-36
2022/06/26 07:58:42;;;;;;;3.90;1.27;;;;;;;19.21;69.98;101618.72;5077723;27;99154;-36
2022/06/26 08:01:07;;;;;;;2.58;1.33;;;;;;;19.19;67.21;101623.47;5077587;27;96629;-36
2022/06/26 08:03:33;;;;;;;2.03;0.80;;;;;;;19.23;67.50;101635.06;5077612;27;96478;-35
2022/06/26 08:05:58;;;;;;;5.18;0.85;;;;;;;19.22;67.74;101620.47;5076512;27;99491;-36
2022/06/26 08:08:26;;;;;;;1.60;0.93;;;;;;;19.21;68.20;101628.81;5077253;27;97956;-35
2022/06/26 08:10:52;;;;;;;2.40;0.77;;;;;;;19.35;67.45;101633.13;5077726;27;96562;-35
2022/06/26 08:13:17;;;;;;;1.48;1.13;;;;;;;19.52;68.09;101624.28;5077203;27;96904;-35
2022/06/26 08:15:43;;;;;;;1.48;0.95;;;;;;;19.79;66.66;101631.19;5077242;27;98058;-36
2022/06/26 08:18:08;;;;;;;1.90;0.90;;;;;;;19.73;64.99;101624.31;5077157;27;97837;-36
2022/06/26 08:20:34;;;;;;;0.93;0.52;;;;;;;19.70;66.93;101619.09;5077396;27;96876;-35
2022/06/26 08:22:59;;;;;;;1.77;0.90;;;;;;;19.80;67.49;101617.28;5077455;27;96783;-35
2022/06/26 08:25:25;;;;;;;0.82;0.50;;;;;;;19.88;65.92;101622.13;5076792;27;98914;-35
2022/06/26 08:27:50;;;;;;;3.08;1.02;;;;;;;19.85;66.01;101616.88;5076938;27;97417;-36
2022/06/26 08:30:16;;;;;;;1.52;1.00;;;;;;;19.81;66.78;101627.28;5076655;27;96742;-36
2022/06/26 08:32:42;;;;;;;1.58;0.95;;;;;;;19.80;66.21;101624.66;5077037;27;96797;-36
2022/06/26 08:35:09;;;;;;;1.73;0.98;;;;;;;19.82;65.17;101640.00;5074978;27;101535;-36
2022/06/26 08:37:34;;;;;;;5.22;0.85;;;;;;;19.62;65.30;101638.13;5075379;27;100654;-36
2022/06/26 08:40:00;;;;;;;2.20;1.10;;;;;;;19.45;65.49;101639.56;5076881;27;96584;-35
2022/06/26 08:42:26;;;;;;;3.22;1.00;;;;;;;19.57;66.20;101646.78;5077228;27;96800;-36
2022/06/26 08:44:56;;;;;;;1.25;0.88;;;;;;;19.52;65.51;101638.03;5075170;27;100820;-36
2022/06/26 08:47:24;;;;;;;1.77;1.13;;;;;;;19.41;66.64;101641.72;5074582;27;100859;-36
2022/06/26 08:49:50;;;;;;;2.67;1.17;;;;;;;19.39;66.80;101638.22;5075300;27;96558;-35
2022/06/26 08:52:19;;;;;;;7.85;1.13;;;;;;;19.23;65.98;101635.91;5076876;27;96757;-35
2022/06/26 08:54:45;;;;;;;2.83;1.45;;;;;;;19.33;66.82;101638.78;5073557;27;101302;-36
2022/06/26 08:57:13;;;;;;;5.30;0.93;;;;;;;19.35;65.90;101630.38;5073420;27;100852;-36
2022/06/26 08:59:38;;;;;;;2.88;1.23;;;;;;;19.64;63.53;101636.97;5073628;27;96739;-36
2022/06/26 09:02:04;;;;;;;4.97;1.17;;;;;;;19.90;64.51;101631.97;5076104;27;97092;-36
2022/06/26 09:04:29;;;;;;;3.13;1.23;;;;;;;20.10;63.33;101635.69;5074567;27;100777;-36
2022/06/26 09:06:55;;;;;;;2.58;1.00;;;;;;;20.10;64.39;101635.69;5076208;27;97788;-36
2022/06/26 09:09:25;;;;;;;2.72;1.55;;;;;;;20.09;62.66;101641.31;5076363;27;96574;-35
2022/06/26 09:11:55;;;;;;;2.38;1.13;;;;;;;20.08;63.47;101645.09;5075087;27;96813;-36
2022/06/26 09:14:22;;;;;;;3.15;1.40;;;;;;;20.17;63.11;101654.41;5074740;27;101424;-35
2022/06/26 09:16:50;;;;;;;1.73;1.05;;;;;;;20.02;63.11;101643.75;5074538;27;100658;-36
2022/06/26 09:19:24;;;;;;;2.25;1.33;;;;;;;19.90;64.01;101653.97;5074542;27;96648;-36
2022/06/26 09:21:51;;;;;;;1.95;1.15;;;;;;;19.84;63.95;101648.13;5076626;27;96721;-36
2022/06/26 09:24:19;;;;;;;3.00;1.27;;;;;;;19.93;63.01;101658.31;5074341;27;101292;-36
2022/06/26 09:27:00;;;;;;;4.20;1.23;;;;;;;19.99;63.96;101662.41;5074492;27;101105;-36
2022/06/26 09:29:25;;;;;;;2.22;1.20;;;;;;;20.05;63.00;101659.97;5074954;27;96571;-35
2022/06/26 09:31:50;;;;;;;2.00;1.30;;;;;;;20.02;63.43;101648.38;5076437;27;96794;-35
2022/06/26 09:34:25;;;;;;;2.25;0.95;;;;;;;20.09;61.99;101664.22;5075703;27;97936;-35
2022/06/26 09:36:58;;;;;;;7.55;1.50;;;;;;;20.15;61.73;101660.91;5076487;27;97979;-35
2022/06/26 09:39:25;;;;;;;1.75;1.00;;;;;;;20.28;60.66;101657.03;5074751;27;96741;-36
2022/06/26 09:42:18;;;;;;;4.25;1.40;;;;;;;20.37;61.65;101667.22;5074345;27;96806;-35
2022/06/26 09:44:48;;;;;;;4.35;1.50;;;;;;;20.42;62.08;101672.31;5075138;27;99893;-35
2022/06/26 09:47:28;;;;;;;3.50;1.17;;;;;;;20.41;59.81;101671.44;5075600;27;97831;-36
2022/06/26 09:49:56;;;;;;;2.83;1.10;;;;;;;20.40;60.70;101669.69;5074566;27;96552;-36
2022/06/26 09:52:25;;;;;;;2.63;1.45;;;;;;;20.57;61.43;101665.47;5074665;27;96905;-36
2022/06/26 09:54:51;;;;;;;2.28;1.50;;;;;;;20.65;60.78;101676.63;5074078;27;100861;-36
2022/06/26 09:57:17;;;;;;;3.13;1.17;;;;;;;20.76;61.05;101668.28;5073994;27;100895;-35
2022/06/26 09:59:43;;;;;;;2.08;1.30;;;;;;;20.72;60.02;101666.81;5074324;27;96753;-35
2022/06/26 10:07:50;;;;;;;1.85;1.42;;;;;;;20.69;59.53;101664.34;5075918;27;97020;-35
2022/06/26 10:10:19;;;;;;;2.38;1.60;;;;;;;20.71;60.82;101667.84;5075128;27;97240;-35
2022/06/26 10:12:52;;;;;;;2.28;1.27;;;;;;;20.67;60.86;101677.38;5075645;27;96751;-36
2022/06/26 10:15:19;;;;;;;6.30;2.08;;;;;;;20.55;61.33;101671.09;5075051;27;99041;-36
2022/06/26 10:18:00;;;;;;;3.67;1.92;;;;;;;20.55;60.77;101678.47;5073759;27;99180;-35
2022/06/26 10:20:29;;;;;;;3.80;1.50;;;;;;;20.55;61.47;101678.47;5075783;27;96735;-35
2022/06/26 10:49:09;;;;;;;2.13;1.42;;;;;;;20.42;59.95;101697.09;5025345;28;99228;-36
2022/06/26 10:51:40;;;;;;;2.47;1.63;;;;;;;20.28;58.90;101685.41;5056478;27;96796;-35
2022/06/26 10:54:17;;;;;;;2.10;1.42;;;;;;;20.25;59.93;101676.59;5073291;27;100798;-35
2022/06/26 10:56:42;;;;;;;3.15;2.08;;;;;;;20.22;59.38;101672.22;5073412;27;100751;-36
2022/06/26 10:59:11;;;;;;;2.70;1.92;;;;;;;20.33;60.26;101674.91;5074932;27;96574;-35
2022/06/26 11:01:36;;;;;;;4.63;2.10;;;;;;;20.41;59.66;101663.19;5075652;27;96821;-35
2022/06/26 11:04:02;;;;;;;3.53;2.38;;;;;;;20.55;59.27;101675.72;5074865;27;98433;-36
2022/06/26 11:06:28;;;;;;;2.92;2.05;;;;;;;20.55;59.90;101672.97;5073196;27;100750;-36
2022/06/26 11:08:54;;;;;;;3.40;2.10;;;;;;;20.41;59.02;101674.19;5074880;27;96708;-36
2022/06/26 11:11:31;;;;;;;4.60;2.25;;;;;;;20.35;58.69;101686.66;5072958;27;98964;-36
2022/06/26 11:13:59;;;;;;;4.90;2.35;;;;;;;20.32;59.26;101681.41;5077299;27;97932;-36
2022/06/26 11:16:32;;;;;;;6.22;2.45;;;;;;;20.27;58.49;101678.19;5076677;27;100884;-36
2022/06/26 11:19:03;;;;;;;5.13;2.45;;;;;;;20.25;60.52;101677.44;5077254;27;96540;-35
2022/06/26 11:21:28;;;;;;;4.93;2.25;;;;;;;20.17;59.83;101666.28;5076954;27;96591;-36
2022/06/26 11:23:54;;;;;;;3.45;2.78;;;;;;;20.25;59.95;101680.19;5077566;27;99309;-36
2022/06/26 11:26:21;;;;;;;6.50;2.30;;;;;;;20.37;59.95;101681.84;5078252;27;99171;-35
2022/06/26 11:28:54;;;;;;;6.47;3.28;;;;;;;20.45;57.95;101663.78;5076794;27;96697;-35
2022/06/26 11:31:22;;;;;;;6.78;2.78;;;;;;;20.50;58.25;101669.75;5076865;27;96692;-35
2022/06/26 11:33:47;;;;;;;7.47;2.78;;;;;;;20.46;58.92;101660.88;5075532;27;100785;-35
2022/06/26 11:36:15;;;;;;;6.43;3.45;;;;;;;20.42;59.17;101664.91;5077762;27;97318;-36
2022/06/26 11:38:51;;;;;;;4.18;2.75;;;;;;;20.44;59.30;101673.06;5076757;27;96545;-36
2022/06/26 11:41:17;;;;;;;4.05;3.00;;;;;;;20.32;59.08;101673.13;5078309;27;96496;-36
2022/06/26 11:43:52;;;;;;;5.07;3.13;;;;;;;20.40;59.53;101669.69;5077836;27;97865;-35
2022/06/26 11:46:18;;;;;;;6.18;3.25;;;;;;;20.44;57.63;101657.41;5077531;27;97781;-36
2022/06/26 11:48:43;;;;;;;5.20;3.30;;;;;;;20.74;58.59;101653.78;5077896;27;96506;-36
2022/06/26 11:51:12;;;;;;;8.93;3.45;;;;;;;21.15;55.72;101654.56;5077521;27;96864;-36
2022/06/26 11:53:37;;;;;;;5.18;3.05;;;;;;;21.31;56.99;101659.50;5077104;27;99510;-36
2022/06/26 11:56:04;;;;;;;5.32;2.78;;;;;;;21.25;57.11;101648.19;5075912;27;100926;-36
2022/06/26 11:58:33;;;;;;;3.90;2.67;;;;;;;21.49;55.35;101648.66;5076042;27;96673;-35
2022/06/26 12:01:03;;;;;;;4.35;3.05;;;;;;;21.71;53.24;101652.09;5076103;27;96874;-36
2022/06/26 12:03:28;;;;;;;5.18;3.05;;;;;;;21.82;54.99;101652.81;5077048;27;99512;-36
2022/06/26 12:05:54;;;;;;;5.13;2.97;;;;;;;22.10;55.24;101652.03;5077082;27;99163;-36
2022/06/26 12:08:19;;;;;;;4.72;2.67;;;;;;;22.00;55.36;101666.72;5077524;27;96595;-36
2022/06/26 12:10:51;;;;;;;6.25;2.95;;;;;;;21.89;52.87;101666.88;5077600;27;96808;-36
2022/06/26 12:13:26;;;;;;;5.38;3.10;;;;;;;22.02;55.50;101667.44;5075741;27;101342;-36
2022/06/26 12:15:52;;;;;;;5.93;3.17;;;;;;;21.71;54.46;101660.38;5074332;27;100988;-36
2022/06/26 12:18:17;;;;;;;3.92;2.22;;;;;;;21.60;55.47;101655.91;5073739;27;96723;-36
2022/06/26 12:20:43;;;;;;;4.00;1.90;;;;;;;21.63;55.89;101655.59;5076024;27;96830;-36
2022/06/26 12:23:10;;;;;;;5.25;1.95;;;;;;;21.88;55.35;101648.59;5073910;27;101242;-36
2022/06/26 12:25:42;;;;;;;4.03;2.35;;;;;;;22.00;54.63;101657.56;5068616;27;100807;-36
2022/06/26 12:28:07;;;;;;;4.05;2.35;;;;;;;21.87;55.21;101663.41;5076931;27;96646;-36
2022/06/26 12:30:35;;;;;;;3.85;2.55;;;;;;;21.73;54.96;101658.34;5075983;27;96832;-35
2022/06/26 12:33:04;;;;;;;2.20;1.60;;;;;;;21.76;54.68;101661.69;5072548;27;100647;-36
2022/06/26 12:35:30;;;;;;;4.60;1.80;;;;;;;21.89;55.03;101666.03;5056729;27;98235;-35
2022/06/26 12:37:56;;;;;;;4.47;1.90;;;;;;;21.87;54.53;101665.28;5057732;27;96706;-35
2022/06/26 12:40:22;;;;;;;4.65;2.15;;;;;;;21.90;53.85;101654.81;5055472;27;96909;-35
2022/06/26 12:42:48;;;;;;;2.38;1.75;;;;;;;21.87;52.27;101651.50;5054897;27;101091;-36
2022/06/26 12:45:14;;;;;;;3.45;1.80;;;;;;;21.84;54.40;101652.66;5057433;27;96661;-35
2022/06/26 12:47:40;;;;;;;4.13;1.95;;;;;;;21.79;53.87;101663.28;5055888;27;96808;-36
2022/06/26 12:50:07;;;;;;;2.63;1.65;;;;;;;21.80;54.59;101656.72;5055871;27;96814;-35
2022/06/26 12:52:32;;;;;;;2.28;1.42;;;;;;;21.63;54.62;101661.13;5054526;27;102759;-35
2022/06/26 12:55:03;;;;;;;4.13;1.80;;;;;;;21.63;54.26;101656.47;5057627;27;97807;-35
2022/06/26 12:57:28;;;;;;;2.30;1.50;;;;;;;21.83;53.69;101656.44;5075295;27;96570;-36
2022/06/26 12:59:54;;;;;;;4.20;1.70;;;;;;;21.80;52.75;101646.56;5076921;27;96776;-35
2022/06/26 13:02:19;;;;;;;5.18;1.80;;;;;;;21.93;54.26;101656.41;5074413;27;98745;-36
2022/06/26 13:04:44;;;;;;;2.60;1.55;;;;;;;21.96;53.43;101651.47;5072671;27;97766;-36
2022/06/26 13:07:09;;;;;;;3.30;1.58;;;;;;;22.08;53.68;101656.81;5062073;27;96847;-36
2022/06/26 13:09:35;;;;;;;3.33;1.60;;;;;;;21.92;53.83;101665.72;5068079;27;97681;-35
2022/06/26 13:12:00;;;;;;;2.78;1.67;;;;;;;21.83;52.51;101661.94;5075700;27;102625;-35
2022/06/26 13:14:26;;;;;;;2.58;1.73;;;;;;;21.97;54.63;101655.09;5057179;27;97480;-36
2022/06/26 13:16:51;;;;;;;3.72;1.48;;;;;;;22.31;53.65;101669.28;5054832;27;96607;-35
2022/06/26 13:19:17;;;;;;;2.28;1.40;;;;;;;22.39;52.15;101676.78;5056959;27;96758;-36
2022/06/26 13:21:43;;;;;;;4.25;1.85;;;;;;;22.39;49.35;101666.63;5074724;27;100794;-35
2022/06/26 13:24:09;;;;;;;2.78;1.67;;;;;;;22.18;51.95;101668.69;5074563;27;100744;-36
2022/06/26 13:26:34;;;;;;;5.22;1.70;;;;;;;22.18;52.27;101657.66;5076411;27;96587;-35
2022/06/26 13:29:01;;;;;;;2.65;1.65;;;;;;;22.17;50.73;101680.75;5076925;27;96884;-35
2022/06/26 13:31:26;;;;;;;3.35;1.55;;;;;;;22.02;52.57;101672.06;5075872;27;97910;-35
2022/06/26 13:33:52;;;;;;;6.60;2.22;;;;;;;21.93;52.74;101668.34;5075318;27;97895;-36
2022/06/26 13:36:17;;;;;;;3.13;1.67;;;;;;;21.98;51.15;101671.50;5075549;27;96569;-35
2022/06/26 13:38:43;;;;;;;4.72;1.90;;;;;;;21.87;53.36;101665.28;5075973;27;96817;-35
2022/06/26 13:41:08;;;;;;;2.80;1.50;;;;;;;21.90;53.24;101668.59;5075644;27;99456;-35
2022/06/26 13:43:33;;;;;;;5.80;2.25;;;;;;;21.94;52.69;101664.53;5075249;27;98112;-36
2022/06/26 13:45:59;;;;;;;1.92;1.27;;;;;;;21.91;51.61;101661.22;5076155;27;96680;-36
2022/06/26 13:48:24;;;;;;;3.78;1.58;;;;;;;21.85;52.37;101660.78;5076046;27;96854;-36
2022/06/26 13:50:52;;;;;;;3.53;1.70;;;;;;;21.78;52.65;101644.97;5075525;27;98149;-35
2022/06/26 13:53:17;;;;;;;3.50;1.60;;;;;;;21.91;52.19;101659.34;5076130;27;97316;-35
2022/06/26 13:55:43;;;;;;;2.13;1.40;;;;;;;21.87;53.24;101652.38;5076127;27;96423;-36
2022/06/26 13:58:08;;;;;;;2.80;1.50;;;;;;;21.95;51.23;101655.28;5076088;27;96870;-35
2022/06/26 14:00:34;;;;;;;2.03;1.50;;;;;;;21.96;52.08;101657.00;5075143;27;97883;-35
2022/06/26 14:03:21;;;;;;;2.33;1.52;;;;;;;22.02;52.69;101659.16;5075278;27;98186;-36
2022/06/26 14:05:46;;;;;;;4.45;1.45;;;;;;;22.02;51.96;101655.50;5075928;27;96520;-35
2022/06/26 14:08:12;;;;;;;1.80;1.20;;;;;;;21.99;51.39;101656.69;5075888;27;96791;-35
2022/06/26 14:10:37;;;;;;;3.15;1.45;;;;;;;21.93;52.60;101651.78;5075373;27;97448;-35
2022/06/26 14:13:03;;;;;;;4.78;1.40;;;;;;;21.97;51.81;101661.47;5075213;27;98795;-35
2022/06/26 14:15:29;;;;;;;4.15;1.30;;;;;;;21.90;52.24;101663.09;5074107;27;96777;-35
2022/06/26 14:17:55;;;;;;;6.80;1.58;;;;;;;21.75;51.83;101661.81;5074693;27;96863;-36
2022/06/26 14:20:20;;;;;;;3.70;1.25;;;;;;;21.79;52.52;101660.53;5075418;27;98263;-35
2022/06/26 14:28:15;;;;;;;3.35;1.30;;;;;;;21.95;51.34;101670.94;5075976;27;96520;-35
2022/06/26 14:30:41;;;;;;;3.53;1.38;;;;;;;21.85;51.68;101666.28;5073767;27;101154;-35
2022/06/26 14:33:06;;;;;;;2.33;1.17;;;;;;;21.88;50.19;101678.94;5075037;27;97277;-36
2022/06/26 14:35:32;;;;;;;2.28;1.30;;;;;;;21.88;51.41;101680.81;5075203;27;96598;-35
2022/06/26 14:37:57;;;;;;;3.17;1.13;;;;;;;21.76;50.20;101681.00;5075335;27;96710;-35
2022/06/26 14:40:22;;;;;;;4.40;1.08;;;;;;;21.67;50.07;101673.59;5074827;27;102502;-35
2022/06/26 14:42:48;;;;;;;4.57;1.38;;;;;;;21.71;50.82;101685.19;5075297;27;99181;-35
2022/06/26 14:45:15;;;;;;;2.17;1.15;;;;;;;21.57;51.98;101662.59;5077062;27;96653;-35
2022/06/26 14:47:40;;;;;;;4.80;1.50;;;;;;;21.52;50.07;101675.03;5078750;27;97068;-36
2022/06/26 14:50:09;;;;;;;3.42;1.10;;;;;;;21.45;51.81;101651.84;5076879;27;99211;-35
2022/06/26 14:52:35;;;;;;;2.22;1.23;;;;;;;21.46;52.23;101639.81;5077128;27;100869;-35
2022/06/26 14:55:01;;;;;;;7.00;1.42;;;;;;;21.50;51.43;101666.03;5078785;27;96655;-36
2022/06/26 14:57:27;;;;;;;3.53;1.60;;;;;;;21.42;51.55;101647.50;5078564;27;96794;-36
2022/06/26 14:59:52;;;;;;;2.15;1.23;;;;;;;21.44;51.83;101648.22;5078625;27;97828;-35
2022/06/26 15:02:17;;;;;;;2.72;1.23;;;;;;;21.46;52.77;101645.31;5078580;27;97786;-35
2022/06/26 15:04:43;;;;;;;6.05;1.35;;;;;;;21.46;52.40;101650.84;5078793;27;96628;-36
2022/06/26 15:07:08;;;;;;;5.03;1.33;;;;;;;21.30;52.21;101646.72;5079127;27;96784;-36
2022/06/26 15:09:33;;;;;;;2.42;1.27;;;;;;;21.28;52.27;101656.16;5078354;27;98108;-35
2022/06/26 15:11:59;;;;;;;3.80;1.40;;;;;;;21.32;51.67;101657.63;5078082;27;105777;-36
2022/06/26 15:14:24;;;;;;;2.35;1.48;;;;;;;21.33;52.37;101651.06;5078115;27;96605;-36
2022/06/26 15:16:50;;;;;;;3.25;1.52;;;;;;;21.35;51.89;101652.66;5078488;27;96870;-35
2022/06/26 15:19:17;;;;;;;3.53;1.63;;;;;;;21.41;52.28;101656.78;5078045;27;97946;-36
2022/06/26 15:21:43;;;;;;;2.58;1.45;;;;;;;21.42;52.54;101648.34;5076586;27;101231;-35
2022/06/26 15:24:08;;;;;;;2.88;1.50;;;;;;;21.42;52.03;101647.50;5078473;27;96577;-35
2022/06/26 15:26:33;;;;;;;4.78;1.23;;;;;;;21.49;51.93;101645.88;5078549;27;96761;-35
2022/06/26 15:28:59;;;;;;;4.00;1.35;;;;;;;21.46;51.33;101639.81;5078063;27;97876;-35
2022/06/26 15:31:24;;;;;;;3.80;1.63;;;;;;;21.51;52.62;101646.63;5078506;27;97309;-36
2022/06/26 15:33:50;;;;;;;2.92;1.70;;;;;;;21.46;52.00;101637.91;5076204;27;96778;-35
2022/06/26 15:36:15;;;;;;;3.95;1.70;;;;;;;21.44;52.46;101636.31;5078281;27;96767;-35
2022/06/26 15:38:41;;;;;;;3.63;1.20;;;;;;;21.38;52.22;101638.63;5077590;27;97316;-36
2022/06/26 15:41:06;;;;;;;3.45;1.52;;;;;;;21.36;52.21;101634.28;5077544;27;99279;-36
2022/06/26 15:43:32;;;;;;;2.40;1.30;;;;;;;21.36;52.47;101635.13;5078022;27;96513;-35
2022/06/26 15:45:57;;;;;;;3.17;1.58;;;;;;;21.41;53.14;101631.97;5078069;27;96758;-35
2022/06/26 15:48:24;;;;;;;2.00;1.13;;;;;;;21.34;50.58;101623.38;5077031;27;99222;-36
2022/06/26 15:50:50;;;;;;;2.45;1.23;;;;;;;21.29;51.71;101631.22;5077075;27;97421;-35
2022/06/26 15:53:15;;;;;;;1.75;1.15;;;;;;;21.32;52.32;101627.31;5078140;27;96972;-35
2022/06/26 15:55:40;;;;;;;4.40;1.40;;;;;;;21.34;52.42;101625.28;5078004;27;96823;-36
2022/06/26 15:58:06;;;;;;;3.20;1.20;;;;;;;21.41;52.19;101638.34;5077263;27;99317;-35
2022/06/26 16:00:31;;;;;;;2.22;1.35;;;;;;;21.39;51.89;101626.59;5077212;27;99113;-36
2022/06/26 16:02:57;;;;;;;4.53;1.58;;;;;;;21.43;52.28;101638.22;5077174;27;96573;-36
2022/06/26 16:05:22;;;;;;;2.47;1.23;;;;;;;21.44;52.29;101622.53;5077486;27;96851;-36
2022/06/26 16:07:47;;;;;;;1.48;0.77;;;;;;;21.47;51.71;101628.63;5077320;27;99322;-35
2022/06/26 16:10:13;;;;;;;2.22;1.00;;;;;;;21.38;51.82;101623.94;5077288;27;97739;-36
2022/06/26 16:12:38;;;;;;;3.00;1.30;;;;;;;21.41;51.34;101637.50;5077672;27;96462;-36
2022/06/26 16:15:04;;;;;;;2.47;0.90;;;;;;;21.36;51.57;101637.88;5077777;27;96793;-35
2022/06/26 16:17:29;;;;;;;1.40;0.80;;;;;;;21.35;51.60;101635.28;5076850;27;98784;-35
2022/06/26 16:19:55;;;;;;;3.65;1.20;;;;;;;21.34;51.96;101633.53;5077466;27;99232;-36
2022/06/26 16:27:49;;;;;;;2.10;1.00;;;;;;;21.19;51.82;101631.22;5077030;27;97081;-36
2022/06/26 16:30:14;;;;;;;3.85;1.40;;;;;;;21.14;51.38;101628.03;5076715;27;101196;-36
2022/06/26 16:32:40;;;;;;;5.32;1.42;;;;;;;21.16;52.55;101636.13;5077354;27;96870;-35
2022/06/26 16:35:06;;;;;;;2.28;1.15;;;;;;;21.14;52.19;101636.31;5077219;27;96798;-35
2022/06/26 16:37:34;;;;;;;1.77;1.23;;;;;;;21.16;52.84;101634.25;5075484;27;101257;-36
2022/06/26 16:40:00;;;;;;;1.65;0.90;;;;;;;21.11;52.65;101628.31;5075236;27;100846;-36
2022/06/26 16:42:26;;;;;;;2.42;0.93;;;;;;;21.12;52.13;101620.94;5075651;27;96520;-36
2022/06/26 16:44:51;;;;;;;4.47;1.13;;;;;;;21.06;51.30;101605.81;5077336;27;96815;-36
2022/06/26 16:47:16;;;;;;;2.28;0.95;;;;;;;21.06;52.54;101607.72;5076907;27;97301;-35
2022/06/26 16:49:42;;;;;;;2.10;1.33;;;;;;;21.07;52.04;101607.59;5075869;27;97966;-35
2022/06/26 16:52:08;;;;;;;2.33;1.35;;;;;;;21.13;52.50;101595.09;5076615;27;96649;-35
2022/06/26 16:54:33;;;;;;;4.63;1.75;;;;;;;21.16;52.34;101586.53;5075442;27;96816;-35
2022/06/26 16:56:59;;;;;;;4.60;1.23;;;;;;;21.22;51.55;101594.25;5076263;27;99947;-36
2022/06/26 16:59:24;;;;;;;3.92;1.05;;;;;;;21.17;51.27;101583.66;5076229;27;97238;-36
2022/06/26 17:01:49;;;;;;;3.50;1.25;;;;;;;21.23;52.21;101597.84;5076920;27;96456;-35
2022/06/26 17:04:14;;;;;;;3.33;1.30;;;;;;;21.31;52.42;101603.50;5076896;27;96739;-36
2022/06/26 17:06:40;;;;;;;2.10;1.48;;;;;;;21.37;51.72;101611.19;5076258;27;97930;-35
2022/06/26 17:09:05;;;;;;;1.73;0.93;;;;;;;21.32;51.63;101605.25;5076351;27;97800;-36
2022/06/26 17:11:31;;;;;;;1.52;1.02;;;;;;;21.17;52.08;101591.06;5076454;27;96863;-36
2022/06/26 17:13:56;;;;;;;3.00;1.08;;;;;;;21.23;51.76;101598.72;5076637;27;96768;-35
2022/06/26 17:16:21;;;;;;;1.50;0.77;;;;;;;21.32;51.68;101602.50;5075785;27;97803;-36
2022/06/26 17:18:47;;;;;;;5.00;1.08;;;;;;;21.36;52.21;101595.69;5075873;27;97795;-35
2022/06/26 17:21:12;;;;;;;1.60;1.05;;;;;;;21.38;51.63;101597.28;5075092;27;96769;-35
2022/06/26 17:23:39;;;;;;;2.60;1.02;;;;;;;21.51;52.13;101599.75;5076451;27;96871;-36
2022/06/26 17:26:05;;;;;;;4.78;1.00;;;;;;;21.50;52.08;101591.59;5075793;27;99294;-35
2022/06/26 17:28:31;;;;;;;2.75;1.20;;;;;;;21.52;51.63;101604.22;5074238;27;100922;-36
2022/06/26 17:30:57;;;;;;;2.20;1.00;;;;;;;21.59;51.92;101599.00;5074761;27;96651;-35
2022/06/26 17:33:23;;;;;;;1.65;0.73;;;;;;;21.65;51.34;101595.66;5074370;27;96805;-36
2022/06/26 17:35:49;;;;;;;3.78;1.10;;;;;;;21.68;51.58;101591.75;5074728;27;97950;-36
2022/06/26 17:38:15;;;;;;;2.35;1.00;;;;;;;21.66;51.69;101582.75;5075226;27;99336;-36
2022/06/26 17:40:42;;;;;;;1.00;0.85;;;;;;;21.70;52.04;101575.91;5073665;27;96691;-36
2022/06/26 17:43:08;;;;;;;1.65;0.73;;;;;;;21.70;52.35;101578.66;5075966;27;96814;-36
2022/06/26 17:45:33;;;;;;;4.22;1.00;;;;;;;21.62;51.28;101577.53;5074448;27;100746;-36
2022/06/26 17:47:59;;;;;;;0.90;0.65;;;;;;;21.52;51.66;101584.06;5075507;27;99829;-36
2022/06/26 17:50:26;;;;;;;1.65;0.90;;;;;;;21.53;51.91;101588.59;5073924;27;96738;-35
2022/06/26 17:52:55;;;;;;;3.17;1.02;;;;;;;21.48;51.57;101589.03;5074448;27;96886;-35
2022/06/26 17:55:21;;;;;;;5.18;1.10;;;;;;;21.45;52.12;101582.91;5070738;27;100770;-36
2022/06/26 17:57:47;;;;;;;1.88;0.93;;;;;;;21.49;51.40;101582.47;5056449;27;100943;-35
2022/06/26 18:00:24;;;;;;;2.83;0.85;;;;;;;21.42;50.74;101589.59;5054007;27;96594;-35
2022/06/26 18:02:52;;;;;;;1.55;0.85;;;;;;;21.49;51.36;101603.66;5054072;27;96846;-36
2022/06/26 18:05:17;;;;;;;4.15;0.70;;;;;;;21.48;51.18;101597.28;5054580;27;97949;-35
2022/06/26 18:07:43;;;;;;;1.83;0.93;;;;;;;21.49;51.40;101590.75;5053407;27;100736;-35
2022/06/26 18:10:09;;;;;;;2.05;1.05;;;;;;;21.55;51.46;101601.19;5055121;27;96634;-35
2022/06/26 18:12:35;;;;;;;3.65;0.80;;;;;;;21.54;51.20;101610.47;5055539;27;96517;-35
2022/06/26 18:15:01;;;;;;;3.53;0.90;;;;;;;21.53;51.32;101602.38;5054859;27;97932;-35
2022/06/26 18:17:26;;;;;;;2.67;1.10;;;;;;;21.48;51.65;101591.78;5053414;27;100745;-36
2022/06/26 18:19:52;;;;;;;1.75;1.00;;;;;;;21.50;51.84;101587.00;5053990;27;96556;-35
2022/06/26 18:22:29;;;;;;;3.33;0.98;;;;;;;21.52;52.96;101573.91;5055826;27;96737;-35
2022/06/26 18:24:55;;;;;;;2.50;0.80;;;;;;;21.45;54.93;101572.75;5054548;27;98203;-35
2022/06/26 18:27:20;;;;;;;1.98;1.00;;;;;;;21.34;53.90;101568.25;5053127;27;97249;-36